Time;durP1;ratioP1;P1;durP2;ratioP2;P2;SDS_P1;SDS_P2;PMS_P1;PMS_P2;Temp;Humidity;BMP_temperature;BMP_pressure;BME280_temperature;BME280_humidity;BME280_pressure;Samples;Min_cycle;Max_cycle;Signal;HPM_P1;HPM_P2
2021/09/27 00:01:31;;;;;;;6.63;5.77;;;19.10;99.90;;;;;;4991862;28;20206;-79
2021/09/27 00:03:57;;;;;;;5.73;5.23;;;19.00;99.90;;;;;;4994085;28;20185;-78
2021/09/27 00:06:23;;;;;;;6.90;6.20;;;19.00;99.90;;;;;;4994608;28;21106;-79
2021/09/27 00:08:49;;;;;;;5.70;4.80;;;19.00;99.90;;;;;;4995986;28;20601;-78
2021/09/27 00:11:21;;;;;;;5.77;5.17;;;19.00;99.90;;;;;;4996370;28;20562;-78
2021/09/27 00:13:49;;;;;;;6.50;5.90;;;19.00;99.90;;;;;;4995752;28;20566;-78
2021/09/27 00:16:16;;;;;;;6.37;5.77;;;19.00;99.90;;;;;;4996247;28;20665;-79
2021/09/27 00:18:41;;;;;;;7.00;6.30;;;19.00;99.90;;;;;;4995830;28;20962;-79
2021/09/27 00:21:13;;;;;;;8.80;8.00;;;19.00;99.90;;;;;;4995129;28;20633;-79
2021/09/27 00:23:39;;;;;;;6.37;5.70;;;18.90;99.90;;;;;;4995713;28;20476;-79
2021/09/27 00:26:06;;;;;;;6.70;5.97;;;19.00;99.90;;;;;;4995546;28;20569;-79
2021/09/27 00:28:33;;;;;;;6.20;5.70;;;18.90;99.90;;;;;;4993734;28;20199;-79
2021/09/27 00:30:59;;;;;;;6.50;5.93;;;18.90;99.90;;;;;;4993568;28;20597;-79
2021/09/27 00:33:26;;;;;;;7.17;6.00;;;18.90;99.90;;;;;;4993778;28;20638;-79
2021/09/27 00:35:53;;;;;;;6.50;5.90;;;18.90;99.90;;;;;;4996264;28;20540;-79
2021/09/27 00:38:20;;;;;;;6.90;6.27;;;18.90;99.90;;;;;;4995870;28;20646;-79
2021/09/27 00:40:50;;;;;;;7.63;6.90;;;18.90;99.90;;;;;;4994592;28;21001;-79
2021/09/27 00:43:17;;;;;;;6.33;5.73;;;18.90;99.90;;;;;;4995466;28;20582;-79
2021/09/27 00:45:48;;;;;;;6.43;5.80;;;18.90;99.90;;;;;;4997265;28;20589;-79
2021/09/27 00:48:13;;;;;;;7.70;7.10;;;18.90;99.90;;;;;;4997764;28;20980;-79
2021/09/27 00:50:46;;;;;;;6.50;5.47;;;18.90;99.90;;;;;;4997030;28;20593;-78
2021/09/27 00:53:19;;;;;;;6.63;6.03;;;18.90;99.90;;;;;;4996262;28;20534;-78
2021/09/27 00:55:45;;;;;;;5.77;5.00;;;19.00;99.90;;;;;;4997301;28;20620;-78
2021/09/27 00:58:14;;;;;;;6.27;5.23;;;19.00;99.90;;;;;;4996226;28;21007;-78
2021/09/27 01:00:40;;;;;;;8.63;6.90;;;19.00;99.90;;;;;;4995716;28;20577;-78
2021/09/27 01:03:06;;;;;;;6.93;5.63;;;19.00;99.90;;;;;;4996689;28;20571;-78
2021/09/27 01:05:36;;;;;;;7.03;6.37;;;19.00;99.90;;;;;;4996918;28;20179;-78
2021/09/27 01:08:27;;;;;;;7.53;6.37;;;19.00;99.90;;;;;;4978341;28;20683;-79
2021/09/27 01:11:11;;;;;;;6.53;5.93;;;19.00;99.90;;;;;;4995668;28;21192;-79
2021/09/27 01:14:02;;;;;;;6.40;5.60;;;19.00;99.90;;;;;;4979220;28;20935;-77
2021/09/27 01:16:40;;;;;;;7.07;5.50;;;19.00;99.90;;;;;;4996503;28;20574;-78
2021/09/27 01:19:27;;;;;;;6.53;5.80;;;19.00;99.90;;;;;;4996006;28;20946;-79
2021/09/27 01:22:08;;;;;;;5.93;5.10;;;19.00;99.90;;;;;;4977817;28;21038;-78
2021/09/27 01:24:43;;;;;;;9.97;6.10;;;19.00;99.90;;;;;;4995644;28;20566;-78
2021/09/27 01:27:52;;;;;;;6.67;6.13;;;19.00;99.90;;;;;;4961134;28;20577;-78
2021/09/27 01:30:48;;;;;;;7.43;5.73;;;19.00;99.90;;;;;;4976837;28;20625;-78
2021/09/27 01:33:27;;;;;;;6.47;5.87;;;18.90;99.90;;;;;;4977094;28;21133;-78
2021/09/27 01:36:17;;;;;;;6.63;5.57;;;18.90;99.90;;;;;;4994175;28;20573;-79
2021/09/27 01:39:06;;;;;;;6.43;5.80;;;18.80;99.90;;;;;;4993723;28;20597;-79
2021/09/27 01:41:50;;;;;;;6.20;5.60;;;18.80;99.90;;;;;;4976373;28;20629;-79
2021/09/27 01:44:42;;;;;;;7.00;6.23;;;18.80;99.90;;;;;;4993944;28;20606;-79
2021/09/27 01:47:24;;;;;;;5.97;5.37;;;18.80;99.90;;;;;;4976498;28;20577;-79
2021/09/27 01:50:02;;;;;;;6.63;6.03;;;18.80;99.90;;;;;;4993677;28;20575;-79
2021/09/27 01:52:42;;;;;;;6.33;5.07;;;18.80;99.90;;;;;;4977327;28;20616;-79
2021/09/27 01:55:20;;;;;;;6.57;4.73;;;18.80;99.90;;;;;;4994847;28;20570;-79
2021/09/27 01:58:24;;;;;;;6.33;5.67;;;18.80;99.90;;;;;;4994080;28;20712;-79
2021/09/27 02:00:56;;;;;;;6.07;5.50;;;18.90;99.90;;;;;;4963796;28;20660;-79
2021/09/27 02:03:36;;;;;;;6.40;4.97;;;18.90;99.90;;;;;;4993318;28;20571;-79
2021/09/27 02:06:17;;;;;;;7.90;6.23;;;19.00;99.90;;;;;;4994191;28;20601;-79
2021/09/27 02:09:02;;;;;;;6.23;5.60;;;19.00;99.90;;;;;;4993203;28;20621;-79
2021/09/27 02:11:34;;;;;;;7.30;6.60;;;18.90;99.90;;;;;;4976004;28;20602;-79
2021/09/27 02:14:24;;;;;;;6.73;5.73;;;19.00;99.90;;;;;;4993116;28;21152;-79
2021/09/27 02:17:08;;;;;;;7.47;6.03;;;19.00;99.90;;;;;;4993232;28;20562;-79
2021/09/27 02:20:09;;;;;;;5.57;5.07;;;19.00;99.90;;;;;;4992608;28;20606;-79
2021/09/27 02:22:39;;;;;;;6.73;5.07;;;18.90;99.90;;;;;;4932429;29;20652;-79
2021/09/27 02:25:13;;;;;;;6.00;5.07;;;19.00;99.90;;;;;;4982020;28;20589;-79
2021/09/27 02:27:40;;;;;;;5.63;5.00;;;18.90;99.90;;;;;;4974949;28;20613;-79
2021/09/27 02:30:08;;;;;;;9.53;7.23;;;18.90;99.90;;;;;;4992722;28;20606;-79
2021/09/27 02:32:47;;;;;;;5.93;5.40;;;18.90;99.90;;;;;;4975347;28;21007;-79
2021/09/27 02:35:19;;;;;;;6.70;6.00;;;18.90;99.90;;;;;;4993528;28;20649;-78
2021/09/27 02:38:02;;;;;;;9.13;7.00;;;18.90;99.90;;;;;;4976470;28;20617;-78
2021/09/27 02:40:47;;;;;;;6.83;6.23;;;18.90;99.90;;;;;;4992630;28;20799;-79
2021/09/27 02:43:13;;;;;;;6.67;6.07;;;18.80;99.90;;;;;;4975528;28;20582;-78
2021/09/27 02:45:43;;;;;;;6.27;5.40;;;18.90;99.90;;;;;;4993189;28;20558;-80
2021/09/27 02:48:14;;;;;;;7.00;6.30;;;18.90;99.90;;;;;;4976310;28;20775;-78
2021/09/27 02:50:50;;;;;;;5.27;4.77;;;18.90;99.90;;;;;;4959649;28;21164;-78
2021/09/27 02:53:16;;;;;;;7.17;6.50;;;18.80;99.90;;;;;;4993026;28;20626;-78
2021/09/27 02:56:20;;;;;;;6.03;5.53;;;18.80;99.90;;;;;;4976105;28;20570;-79
2021/09/27 02:59:13;;;;;;;7.10;6.10;;;18.80;99.90;;;;;;5006167;22;20704;-75
2021/09/27 03:01:47;;;;;;;7.27;6.57;;;18.70;99.90;;;;;;5016636;28;20625;-76
2021/09/27 03:04:29;;;;;;;6.83;6.10;;;18.70;99.90;;;;;;5012151;28;20561;-75
2021/09/27 03:07:02;;;;;;;7.40;6.70;;;18.70;99.90;;;;;;5012149;28;20570;-76
2021/09/27 03:09:34;;;;;;;9.20;7.90;;;18.70;99.90;;;;;;5010380;28;20597;-76
2021/09/27 03:12:16;;;;;;;8.57;6.80;;;18.60;99.90;;;;;;5012231;28;20616;-76
2021/09/27 03:15:16;;;;;;;7.60;6.87;;;18.50;99.90;;;;;;5011998;28;20627;-76
2021/09/27 03:18:02;;;;;;;8.43;6.20;;;18.50;99.90;;;;;;5010893;28;20672;-75
2021/09/27 03:20:49;;;;;;;7.70;7.00;;;18.50;99.90;;;;;;5010262;28;20696;-75
2021/09/27 03:23:34;;;;;;;8.03;6.20;;;18.40;99.90;;;;;;5011920;28;20573;-75
2021/09/27 03:26:26;;;;;;;7.17;6.47;;;18.40;99.90;;;;;;5011710;28;20561;-76
2021/09/27 03:29:03;;;;;;;7.87;7.20;;;18.40;99.90;;;;;;5011461;28;21156;-76
2021/09/27 03:31:37;;;;;;;8.10;7.30;;;18.30;99.90;;;;;;5010382;28;21134;-76
2021/09/27 03:34:21;;;;;;;6.80;6.20;;;18.30;99.90;;;;;;5010477;28;20688;-76
2021/09/27 03:36:46;;;;;;;7.40;6.70;;;18.30;99.90;;;;;;5011649;28;20562;-76
2021/09/27 03:39:29;;;;;;;8.07;6.67;;;18.30;99.90;;;;;;5013998;28;20687;-76
2021/09/27 03:42:14;;;;;;;6.67;6.00;;;18.20;99.90;;;;;;5015385;28;20692;-76
2021/09/27 03:44:52;;;;;;;7.83;7.10;;;18.20;99.90;;;;;;5015950;28;20577;-76
2021/09/27 03:47:27;;;;;;;7.33;6.50;;;18.20;99.90;;;;;;5015516;28;20581;-76
2021/09/27 03:50:08;;;;;;;8.40;7.60;;;18.20;99.90;;;;;;5015279;28;20584;-76
2021/09/27 03:52:37;;;;;;;7.80;7.00;;;18.20;99.90;;;;;;5015584;28;20659;-76
2021/09/27 03:55:21;;;;;;;7.57;6.87;;;18.20;99.90;;;;;;5014462;28;20604;-76
2021/09/27 03:58:08;;;;;;;9.47;7.70;;;18.20;99.90;;;;;;5015276;28;20890;-76
2021/09/27 04:00:49;;;;;;;8.20;6.83;;;18.20;99.90;;;;;;5015232;28;20622;-75
2021/09/27 04:03:33;;;;;;;9.90;7.77;;;18.10;99.90;;;;;;5014352;28;20581;-76
2021/09/27 04:06:23;;;;;;;8.03;7.27;;;18.10;99.90;;;;;;5015524;28;20611;-76
2021/09/27 04:09:06;;;;;;;7.57;6.90;;;18.10;99.90;;;;;;5013532;28;20601;-75
2021/09/27 04:11:53;;;;;;;6.77;6.27;;;18.20;99.90;;;;;;5013954;28;20624;-76
2021/09/27 04:14:43;;;;;;;8.03;7.23;;;18.10;99.90;;;;;;5020417;28;20667;-75
2021/09/27 04:17:21;;;;;;;7.20;6.57;;;18.20;99.90;;;;;;4986391;28;20585;-76
2021/09/27 04:19:46;;;;;;;7.37;6.77;;;18.20;99.90;;;;;;5013789;28;20620;-75
2021/09/27 04:22:23;;;;;;;8.90;6.97;;;18.30;99.90;;;;;;5014815;28;20621;-75
2021/09/27 04:25:22;;;;;;;8.27;6.90;;;18.30;99.90;;;;;;5014805;28;20178;-76
2021/09/27 04:28:18;;;;;;;6.40;5.73;;;18.30;99.90;;;;;;5014751;28;20652;-75
2021/09/27 04:30:46;;;;;;;6.70;6.10;;;18.30;99.90;;;;;;5014670;28;20647;-75
2021/09/27 04:33:40;;;;;;;7.13;6.53;;;18.30;99.90;;;;;;5014694;28;20922;-75
2021/09/27 04:36:12;;;;;;;8.10;7.00;;;18.30;99.90;;;;;;5016721;28;20565;-76
2021/09/27 04:38:39;;;;;;;6.83;6.13;;;18.40;99.90;;;;;;5014973;28;20605;-75
2021/09/27 04:41:30;;;;;;;6.70;6.00;;;18.40;99.90;;;;;;5016363;28;20970;-76
2021/09/27 04:44:14;;;;;;;7.97;7.27;;;18.40;99.90;;;;;;5014993;28;20623;-76
2021/09/27 04:47:05;;;;;;;6.70;6.10;;;18.30;99.90;;;;;;5016589;28;20664;-75
2021/09/27 04:49:58;;;;;;;7.17;6.53;;;18.30;99.90;;;;;;5015797;28;20609;-76
2021/09/27 04:52:26;;;;;;;7.33;6.37;;;18.40;99.90;;;;;;5017100;28;20573;-76
2021/09/27 04:55:23;;;;;;;7.10;5.90;;;18.40;99.90;;;;;;5014500;28;20676;-75
2021/09/27 04:58:19;;;;;;;7.20;6.50;;;18.40;99.90;;;;;;4996786;28;20569;-75
2021/09/27 05:01:12;;;;;;;6.17;5.60;;;18.40;99.90;;;;;;5014206;28;20623;-75
2021/09/27 05:04:00;;;;;;;7.53;6.93;;;18.40;99.90;;;;;;5013024;28;21178;-76
2021/09/27 05:06:55;;;;;;;7.50;6.80;;;18.50;99.90;;;;;;5014023;28;20576;-76
2021/09/27 05:09:46;;;;;;;7.13;6.53;;;18.40;99.90;;;;;;5012383;28;21015;-76
2021/09/27 05:12:35;;;;;;;6.33;5.73;;;18.50;99.90;;;;;;5012921;28;21037;-76
2021/09/27 05:15:31;;;;;;;7.40;6.80;;;18.50;99.90;;;;;;5012656;28;20668;-75
2021/09/27 05:18:31;;;;;;;7.90;6.00;;;18.50;99.90;;;;;;4996326;28;20688;-75
2021/09/27 05:21:14;;;;;;;7.33;6.63;;;18.50;99.90;;;;;;5013308;28;20620;-74
2021/09/27 05:23:52;;;;;;;8.10;7.40;;;18.50;99.90;;;;;;5012640;28;20577;-75
2021/09/27 05:26:33;;;;;;;6.50;5.90;;;18.50;99.90;;;;;;5012302;28;20627;-75
2021/09/27 05:29:31;;;;;;;6.50;5.17;;;18.50;99.90;;;;;;5016689;28;20593;-75
2021/09/27 05:32:12;;;;;;;6.80;6.10;;;18.40;99.90;;;;;;4961402;28;20614;-74
2021/09/27 05:35:02;;;;;;;7.83;6.93;;;18.40;99.90;;;;;;5012564;28;20577;-75
2021/09/27 05:38:05;;;;;;;11.70;5.93;;;18.40;99.90;;;;;;5013723;28;20567;-75
2021/09/27 05:40:45;;;;;;;8.93;7.37;;;18.40;99.90;;;;;;5011790;28;20572;-75
2021/09/27 05:43:52;;;;;;;7.37;6.67;;;18.40;99.90;;;;;;5013581;28;20619;-75
2021/09/27 05:46:54;;;;;;;7.87;6.73;;;18.30;99.90;;;;;;4979980;28;20581;-75
2021/09/27 05:49:32;;;;;;;6.47;5.97;;;18.30;99.90;;;;;;5012960;28;20716;-75
2021/09/27 05:52:11;;;;;;;8.63;7.60;;;18.30;99.90;;;;;;5013255;28;20577;-75
2021/09/27 05:55:06;;;;;;;9.87;7.60;;;18.30;99.90;;;;;;5013215;28;20578;-75
2021/09/27 05:57:54;;;;;;;7.27;6.47;;;18.20;99.90;;;;;;5011983;28;20581;-76
2021/09/27 06:00:42;;;;;;;8.27;7.30;;;18.20;99.90;;;;;;5012670;28;20585;-76
2021/09/27 06:03:40;;;;;;;6.30;5.70;;;18.20;99.90;;;;;;5011371;28;20590;-76
2021/09/27 06:06:35;;;;;;;8.27;7.47;;;18.20;99.90;;;;;;5013323;28;20692;-76
2021/09/27 06:09:12;;;;;;;7.80;7.10;;;18.20;99.90;;;;;;5004394;28;20663;-75
2021/09/27 06:11:47;;;;;;;7.73;6.77;;;18.30;99.90;;;;;;5011705;28;20894;-75
2021/09/27 06:14:16;;;;;;;9.47;6.90;;;18.30;99.90;;;;;;5009990;28;20624;-75
2021/09/27 06:17:26;;;;;;;7.63;7.03;;;18.30;99.90;;;;;;5012465;28;21050;-75
2021/09/27 06:20:14;;;;;;;7.23;6.53;;;18.30;99.90;;;;;;4975454;28;20986;-74
2021/09/27 06:22:53;;;;;;;7.87;6.50;;;18.30;99.90;;;;;;4994232;28;20632;-74
2021/09/27 06:25:21;;;;;;;8.20;7.10;;;18.40;99.90;;;;;;5011907;28;20581;-75
2021/09/27 06:28:07;;;;;;;8.00;7.20;;;18.50;99.90;;;;;;5011500;28;20604;-74
2021/09/27 06:31:07;;;;;;;;;;;;;;;;;;;;;
2021/09/27 06:34:15;;;;;;;8.23;7.53;;;18.60;99.90;;;;;;5011920;28;20565;-75
2021/09/27 06:36:42;;;;;;;8.00;6.97;;;18.70;99.90;;;;;;5012284;28;20619;-75
2021/09/27 06:39:15;;;;;;;7.67;6.10;;;18.90;99.90;;;;;;5010165;28;20609;-74
2021/09/27 06:41:41;;;;;;;8.00;7.03;;;18.90;99.90;;;;;;5010760;28;20633;-74
2021/09/27 06:44:12;;;;;;;6.37;5.77;;;19.00;99.90;;;;;;5011914;28;20588;-75
2021/09/27 06:46:39;;;;;;;7.73;6.93;;;19.10;99.90;;;;;;5012077;28;20631;-74
2021/09/27 06:49:04;;;;;;;7.60;6.60;;;19.10;99.90;;;;;;5011268;28;20604;-75
2021/09/27 06:51:30;;;;;;;7.00;6.30;;;19.20;99.90;;;;;;5011918;28;20573;-75
2021/09/27 06:53:56;;;;;;;6.80;6.10;;;19.30;99.90;;;;;;5010640;28;20585;-75
2021/09/27 06:56:21;;;;;;;8.03;7.20;;;19.30;99.90;;;;;;5010688;28;20178;-75
2021/09/27 06:58:47;;;;;;;7.87;6.33;;;19.20;99.90;;;;;;5011359;28;20210;-74
2021/09/27 07:01:13;;;;;;;7.00;6.30;;;19.20;99.90;;;;;;5011571;28;20671;-75
2021/09/27 07:03:38;;;;;;;7.83;6.43;;;19.30;99.90;;;;;;5011791;28;20200;-75
2021/09/27 07:06:04;;;;;;;7.10;6.50;;;19.30;99.90;;;;;;5010876;28;20593;-75
2021/09/27 07:08:30;;;;;;;10.30;7.90;;;19.40;99.90;;;;;;5011590;28;20558;-75
2021/09/27 07:10:56;;;;;;;6.80;6.10;;;19.40;99.90;;;;;;5011085;28;20569;-75
2021/09/27 07:13:23;;;;;;;10.60;7.27;;;19.50;99.90;;;;;;4993762;28;20578;-75
2021/09/27 07:15:49;;;;;;;7.37;6.20;;;19.50;99.90;;;;;;5011540;28;20621;-75
2021/09/27 07:18:15;;;;;;;7.10;5.83;;;19.60;99.90;;;;;;5014411;28;20664;-74
2021/09/27 07:20:41;;;;;;;6.83;5.53;;;19.70;99.90;;;;;;5011955;28;20566;-74
2021/09/27 07:23:07;;;;;;;6.60;6.00;;;19.90;99.90;;;;;;5011509;28;20570;-74
2021/09/27 07:25:34;;;;;;;9.10;6.90;;;20.00;99.90;;;;;;4993931;28;21002;-74
2021/09/27 07:28:01;;;;;;;6.70;6.00;;;20.10;99.90;;;;;;4993841;28;20229;-74
2021/09/27 07:30:28;;;;;;;8.60;6.50;;;20.40;99.90;;;;;;5011196;28;20572;-74
2021/09/27 07:32:54;;;;;;;8.50;5.57;;;20.80;99.90;;;;;;5011133;28;20574;-75
2021/09/27 07:35:23;;;;;;;8.13;7.30;;;21.40;99.90;;;;;;5011292;28;20569;-74
2021/09/27 07:37:49;;;;;;;6.27;5.67;;;21.90;99.90;;;;;;5011263;28;20607;-74
2021/09/27 07:40:23;;;;;;;5.53;5.03;;;22.40;99.90;;;;;;4993366;28;20669;-74
2021/09/27 07:42:49;;;;;;;6.80;5.30;;;22.80;99.90;;;;;;4977235;28;20751;-74
2021/09/27 07:45:18;;;;;;;5.53;4.93;;;23.30;99.90;;;;;;5011294;28;21160;-74
2021/09/27 07:47:44;;;;;;;9.70;5.97;;;23.70;99.90;;;;;;5011128;28;20182;-74
2021/09/27 07:50:12;;;;;;;5.93;5.20;;;24.20;99.90;;;;;;5010794;28;20660;-74
2021/09/27 07:52:38;;;;;;;4.70;4.23;;;24.60;99.90;;;;;;5011244;28;20577;-74
2021/09/27 07:55:05;;;;;;;4.57;4.27;;;24.70;99.90;;;;;;4993461;28;20664;-73
2021/09/27 07:57:32;;;;;;;9.43;4.70;;;24.70;99.90;;;;;;5010970;28;20926;-73
2021/09/27 07:59:58;;;;;;;5.03;4.27;;;24.80;99.90;;;;;;5010285;28;20914;-74
2021/09/27 08:02:28;;;;;;;5.23;3.53;;;25.00;99.90;;;;;;4993126;28;20682;-74
2021/09/27 08:04:54;;;;;;;5.50;5.00;;;25.10;99.90;;;;;;4993333;28;20169;-74
2021/09/27 08:07:21;;;;;;;3.70;3.40;;;25.10;99.90;;;;;;4993724;28;20573;-73
2021/09/27 08:09:47;;;;;;;5.07;3.50;;;25.10;99.90;;;;;;5010460;28;21378;-74
2021/09/27 08:12:13;;;;;;;5.00;4.60;;;25.20;99.90;;;;;;5011051;28;20577;-74
2021/09/27 08:14:39;;;;;;;4.53;4.13;;;25.10;99.90;;;;;;5010881;28;20568;-74
2021/09/27 08:17:05;;;;;;;5.37;4.97;;;25.20;99.90;;;;;;5010901;28;20577;-74
2021/09/27 08:19:31;;;;;;;4.07;3.70;;;25.30;99.90;;;;;;5010151;28;20209;-74
2021/09/27 08:21:56;;;;;;;5.70;3.10;;;25.50;99.90;;;;;;5010766;28;20628;-74
2021/09/27 08:24:23;;;;;;;4.93;2.83;;;25.80;99.90;;;;;;4993376;28;20573;-74
2021/09/27 08:26:49;;;;;;;4.03;3.27;;;26.00;99.90;;;;;;5014431;28;20179;-74
2021/09/27 08:29:15;;;;;;;8.03;3.37;;;26.30;99.90;;;;;;4996540;28;20609;-75
2021/09/27 08:31:41;;;;;;;3.53;3.23;;;26.40;99.90;;;;;;5015199;28;20584;-74
2021/09/27 08:34:07;;;;;;;3.37;3.07;;;26.40;99.90;;;;;;4997626;28;20577;-74
2021/09/27 08:36:34;;;;;;;3.20;2.90;;;26.60;99.90;;;;;;4997023;28;20631;-74
2021/09/27 08:38:59;;;;;;;2.60;2.40;;;26.90;99.90;;;;;;4996409;28;20609;-74
2021/09/27 08:41:51;;;;;;;3.27;3.03;;;27.10;99.90;;;;;;5014248;28;21240;-74
2021/09/27 08:44:32;;;;;;;5.20;2.70;;;27.40;99.90;;;;;;5014243;28;20225;-74
2021/09/27 08:47:05;;;;;;;4.43;2.70;;;27.80;99.90;;;;;;5014487;28;20927;-75
2021/09/27 08:49:34;;;;;;;4.47;3.00;;;27.90;99.90;;;;;;5013653;28;20625;-75
2021/09/27 08:52:00;;;;;;;4.00;2.47;;;27.90;99.90;;;;;;5014037;28;20604;-75
2021/09/27 08:54:29;;;;;;;3.20;2.90;;;27.90;99.90;;;;;;5013780;28;20673;-75
2021/09/27 08:57:25;;;;;;;1.90;1.70;;;27.60;99.90;;;;;;4996401;28;20943;-75
2021/09/27 09:00:18;;;;;;;2.53;2.33;;;27.40;99.90;;;;;;5013317;28;20625;-75
2021/09/27 09:02:54;;;;;;;6.50;2.77;;;27.50;99.90;;;;;;5013575;28;20628;-75
2021/09/27 09:05:32;;;;;;;3.23;2.80;;;27.40;99.90;;;;;;5013339;28;20561;-75
2021/09/27 09:08:26;;;;;;;4.27;2.40;;;27.20;99.90;;;;;;4999379;28;20576;-75
2021/09/27 09:11:06;;;;;;;2.63;2.20;;;26.90;99.90;;;;;;5014264;28;20577;-75
2021/09/27 09:13:49;;;;;;;3.33;3.03;;;26.70;99.90;;;;;;5013578;28;20631;-75
2021/09/27 09:16:18;;;;;;;3.00;2.00;;;26.70;99.90;;;;;;5013463;28;20572;-75
2021/09/27 09:18:49;;;;;;;3.60;2.73;;;26.70;99.90;;;;;;5013604;28;20662;-75
2021/09/27 09:21:24;;;;;;;4.67;3.83;;;27.00;99.90;;;;;;4995346;28;20720;-74
2021/09/27 09:23:53;;;;;;;4.73;3.93;;;27.30;99.90;;;;;;4996010;28;20584;-75
2021/09/27 09:26:48;;;;;;;4.63;3.30;;;27.90;99.90;;;;;;5013122;28;20972;-74
2021/09/27 09:29:21;;;;;;;2.80;2.33;;;28.50;99.90;;;;;;5013078;28;20578;-74
2021/09/27 09:31:52;;;;;;;2.53;2.20;;;28.90;99.90;;;;;;4995824;28;20569;-75
2021/09/27 09:34:18;;;;;;;3.50;1.97;;;29.00;99.90;;;;;;5011731;28;20598;-74
2021/09/27 09:36:50;;;;;;;2.47;2.27;;;28.90;99.90;;;;;;4988715;28;20581;-74
2021/09/27 09:39:26;;;;;;;6.07;2.13;;;28.70;99.90;;;;;;5012390;28;20313;-74
2021/09/27 09:41:58;;;;;;;2.37;1.60;;;28.60;99.90;;;;;;4994887;28;21140;-74
2021/09/27 09:44:24;;;;;;;4.53;1.90;;;28.70;99.90;;;;;;5012599;28;20688;-74
2021/09/27 09:47:08;;;;;;;2.43;2.00;;;28.60;99.90;;;;;;4995116;28;20664;-74
2021/09/27 09:49:51;;;;;;;2.30;2.10;;;28.30;99.90;;;;;;5012399;28;20229;-74
2021/09/27 09:52:35;;;;;;;5.20;3.10;;;27.90;99.90;;;;;;5012019;28;20585;-74
2021/09/27 09:55:29;;;;;;;3.03;1.70;;;27.80;99.90;;;;;;5012894;28;20698;-74
2021/09/27 09:58:12;;;;;;;2.27;1.37;;;27.50;99.90;;;;;;4994669;28;20573;-75
2021/09/27 10:00:47;;;;;;;2.30;1.43;;;27.30;99.90;;;;;;5012213;28;20588;-75
2021/09/27 10:03:16;;;;;;;3.77;1.57;;;27.40;99.90;;;;;;5012228;28;20612;-75
2021/09/27 10:05:55;;;;;;;2.43;1.30;;;27.40;99.90;;;;;;5010282;28;20633;-75
2021/09/27 10:08:24;;;;;;;1.93;1.07;;;27.40;99.90;;;;;;5011975;28;20997;-74
2021/09/27 10:11:06;;;;;;;1.90;1.10;;;27.50;99.90;;;;;;5011462;28;20937;-74
2021/09/27 10:13:39;;;;;;;2.10;1.63;;;27.70;99.90;;;;;;5012293;28;20588;-74
2021/09/27 10:16:14;;;;;;;1.80;1.10;;;27.60;99.90;;;;;;5011986;28;20573;-74
2021/09/27 10:18:44;;;;;;;2.53;1.40;;;27.40;99.90;;;;;;5012243;28;20612;-73
2021/09/27 10:21:21;;;;;;;2.33;1.47;;;27.30;99.90;;;;;;4994184;28;20647;-73
2021/09/27 10:23:51;;;;;;;2.07;1.13;;;27.20;99.90;;;;;;5012353;28;20588;-73
2021/09/27 10:26:31;;;;;;;4.10;1.33;;;27.00;99.90;;;;;;5011938;28;20582;-73
2021/09/27 10:29:18;;;;;;;4.40;1.20;;;26.80;99.90;;;;;;4994385;28;21238;-73
2021/09/27 10:31:56;;;;;;;2.00;1.10;;;26.60;99.90;;;;;;5011933;28;20691;-73
2021/09/27 10:34:24;;;;;;;2.17;1.10;;;26.60;99.90;;;;;;5012290;28;20599;-73
2021/09/27 10:36:58;;;;;;;2.23;1.30;;;26.60;99.90;;;;;;5011879;28;21124;-73
2021/09/27 10:39:24;;;;;;;1.40;1.00;;;26.50;99.90;;;;;;5011619;28;20605;-73
2021/09/27 10:42:00;;;;;;;3.30;1.30;;;26.40;99.90;;;;;;5011694;28;20640;-74
2021/09/27 10:44:41;;;;;;;3.73;1.00;;;26.40;99.90;;;;;;4977961;28;20600;-74
2021/09/27 10:47:20;;;;;;;1.90;1.10;;;26.40;99.90;;;;;;4994569;28;20623;-74
2021/09/27 10:50:13;;;;;;;2.00;1.27;;;26.30;99.90;;;;;;5011342;28;20684;-74
2021/09/27 10:52:51;;;;;;;2.23;1.27;;;26.30;99.90;;;;;;4993524;28;20603;-73
2021/09/27 10:55:42;;;;;;;2.53;1.63;;;26.30;99.90;;;;;;4978126;28;21070;-73
2021/09/27 10:58:11;;;;;;;1.60;1.10;;;26.30;99.90;;;;;;5011191;28;21249;-74
2021/09/27 11:00:50;;;;;;;1.70;1.00;;;26.40;99.90;;;;;;5012241;28;20668;-73
2021/09/27 11:03:31;;;;;;;1.90;1.00;;;26.40;99.90;;;;;;5011562;28;20588;-74
2021/09/27 11:06:34;;;;;;;1.30;0.90;;;26.40;99.90;;;;;;4994005;28;20659;-74
2021/09/27 11:09:07;;;;;;;1.80;1.30;;;26.30;99.90;;;;;;5010817;28;20605;-73
2021/09/27 11:11:40;;;;;;;1.43;1.00;;;26.40;99.90;;;;;;4993837;28;20616;-73
2021/09/27 11:14:28;;;;;;;1.53;0.90;;;26.50;99.90;;;;;;5011414;28;20680;-74
2021/09/27 11:17:19;;;;;;;2.17;0.90;;;26.60;99.90;;;;;;4994060;28;20592;-74
2021/09/27 11:20:11;;;;;;;2.30;1.07;;;26.90;99.90;;;;;;4986308;28;20690;-74
2021/09/27 11:22:43;;;;;;;1.50;0.90;;;27.10;99.90;;;;;;4993891;28;20648;-73
2021/09/27 11:25:12;;;;;;;2.50;1.00;;;27.40;99.90;;;;;;4993515;28;20954;-74
2021/09/27 11:27:38;;;;;;;1.60;1.00;;;27.60;99.90;;;;;;4993729;28;20591;-74
2021/09/27 11:30:36;;;;;;;1.33;0.90;;;27.70;99.90;;;;;;5011023;28;20628;-73
2021/09/27 11:33:02;;;;;;;1.30;0.80;;;27.60;99.60;;;;;;4993795;28;20590;-74
2021/09/27 11:35:41;;;;;;;3.80;1.00;;;27.60;99.30;;;;;;5011229;28;20616;-74
2021/09/27 11:38:27;;;;;;;1.50;0.90;;;27.50;98.90;;;;;;5011159;28;21033;-74
2021/09/27 11:41:01;;;;;;;1.70;0.90;;;27.30;98.50;;;;;;4993384;28;21203;-74
2021/09/27 11:43:45;;;;;;;3.17;1.37;;;27.20;98.70;;;;;;4994049;28;20656;-73
2021/09/27 11:46:46;;;;;;;1.60;1.00;;;27.20;98.70;;;;;;5010932;28;20968;-74
2021/09/27 11:49:23;;;;;;;1.83;1.10;;;27.10;98.50;;;;;;4993496;28;20589;-73
2021/09/27 11:52:03;;;;;;;4.83;0.97;;;26.90;98.40;;;;;;5010647;28;20573;-74
2021/09/27 11:55:00;;;;;;;1.30;0.80;;;26.80;98.60;;;;;;5009372;28;20576;-74
2021/09/27 11:57:48;;;;;;;1.33;0.80;;;26.70;98.30;;;;;;5010326;28;20720;-74
2021/09/27 12:00:24;;;;;;;1.50;0.90;;;26.60;98.50;;;;;;4994014;28;20593;-74
2021/09/27 12:03:16;;;;;;;1.50;1.00;;;26.50;98.80;;;;;;5015027;28;20675;-74
2021/09/27 12:05:48;;;;;;;2.50;0.97;;;26.50;99.20;;;;;;5015189;28;20569;-73
2021/09/27 12:08:27;;;;;;;1.60;0.93;;;26.70;99.70;;;;;;5014730;28;20700;-73
2021/09/27 12:11:04;;;;;;;1.40;0.90;;;26.80;99.60;;;;;;5014415;28;20611;-74
2021/09/27 12:13:51;;;;;;;2.43;0.97;;;27.00;99.80;;;;;;5014383;28;20564;-73
2021/09/27 12:16:22;;;;;;;2.77;1.27;;;27.20;99.70;;;;;;4997272;28;20588;-74
2021/09/27 12:18:55;;;;;;;1.60;0.90;;;27.40;99.50;;;;;;5014109;28;20601;-74
2021/09/27 12:21:44;;;;;;;4.47;1.20;;;27.50;99.20;;;;;;5014255;28;20626;-74
2021/09/27 12:24:15;;;;;;;1.90;1.00;;;27.60;98.90;;;;;;5014099;28;21107;-74
2021/09/27 12:27:03;;;;;;;2.67;1.00;;;27.70;98.80;;;;;;5014542;28;20574;-74
2021/09/27 12:29:29;;;;;;;1.30;0.90;;;27.70;98.40;;;;;;5014046;28;20642;-74
2021/09/27 12:31:59;;;;;;;2.20;0.90;;;27.70;98.20;;;;;;5014577;28;20589;-74
2021/09/27 12:34:31;;;;;;;2.83;1.00;;;27.60;97.90;;;;;;5014525;28;20634;-74
2021/09/27 12:36:57;;;;;;;1.60;1.00;;;27.60;97.70;;;;;;5014646;28;20574;-74
2021/09/27 12:39:27;;;;;;;2.97;0.83;;;27.60;97.80;;;;;;5014249;28;20727;-74
2021/09/27 12:41:55;;;;;;;2.67;0.80;;;27.60;97.70;;;;;;5014205;28;20617;-74
2021/09/27 12:44:30;;;;;;;1.67;0.80;;;27.50;97.30;;;;;;4997043;28;21202;-74
2021/09/27 12:47:00;;;;;;;4.80;1.20;;;27.50;97.20;;;;;;4996588;28;20575;-73
2021/09/27 12:49:33;;;;;;;1.67;0.93;;;27.40;97.10;;;;;;5014516;28;20636;-74
2021/09/27 12:52:02;;;;;;;1.70;1.00;;;27.30;96.90;;;;;;5014317;28;20668;-73
2021/09/27 12:54:36;;;;;;;1.80;1.00;;;27.20;96.90;;;;;;5014381;28;20940;-73
2021/09/27 12:57:20;;;;;;;2.33;1.00;;;27.20;96.80;;;;;;5014062;28;20592;-73
2021/09/27 12:59:45;;;;;;;1.60;1.00;;;27.10;96.50;;;;;;4995651;28;21198;-73
2021/09/27 13:02:13;;;;;;;1.73;1.00;;;26.90;96.50;;;;;;5013821;28;20723;-73
2021/09/27 13:04:44;;;;;;;1.60;1.00;;;26.70;96.50;;;;;;4996591;28;20573;-73
2021/09/27 13:07:15;;;;;;;1.40;0.90;;;26.70;96.80;;;;;;5013896;28;20692;-73
2021/09/27 13:10:15;;;;;;;1.40;0.80;;;26.60;97.10;;;;;;5013588;28;20700;-73
2021/09/27 13:12:56;;;;;;;2.30;1.27;;;26.60;96.90;;;;;;5013659;28;20601;-73
2021/09/27 13:15:44;;;;;;;2.90;1.07;;;26.50;96.90;;;;;;5013934;28;20580;-73
2021/09/27 13:18:24;;;;;;;1.33;0.80;;;26.40;97.10;;;;;;4996125;28;20620;-73
2021/09/27 13:21:26;;;;;;;7.23;1.00;;;26.40;97.30;;;;;;5013866;28;20576;-73
2021/09/27 13:24:10;;;;;;;1.50;0.90;;;26.40;97.30;;;;;;5013133;28;20981;-73
2021/09/27 13:26:41;;;;;;;1.47;0.90;;;26.40;97.20;;;;;;4996176;28;20573;-74
2021/09/27 13:29:36;;;;;;;1.60;0.80;;;26.30;97.20;;;;;;5012983;28;20601;-73
2021/09/27 13:32:11;;;;;;;1.97;0.97;;;26.30;97.30;;;;;;4995943;28;20564;-73
2021/09/27 13:34:41;;;;;;;2.07;0.80;;;26.20;97.00;;;;;;5013174;28;21172;-73
2021/09/27 13:37:27;;;;;;;3.97;0.90;;;26.00;97.50;;;;;;4979585;28;20585;-72
2021/09/27 13:39:56;;;;;;;1.57;1.00;;;25.80;97.20;;;;;;4995210;28;20613;-73
2021/09/27 13:42:49;;;;;;;3.00;1.30;;;25.60;97.60;;;;;;4995862;28;20616;-74